Time;durP1;ratioP1;P1;durP2;ratioP2;P2;SDS_P1;SDS_P2;PMS_P1;PMS_P2;Temp;Humidity;BMP_temperature;BMP_pressure;BME280_temperature;BME280_humidity;BME280_pressure;Samples;Min_cycle;Max_cycle;Signal;HPM_P1;HPM_P2
2021/01/04 00:00:48;1104367.00;3.68;1918.24;0.00;0.00;0.62;;;;;22.80;41.10;;;;;;2248705;61;5904;-67
2021/01/04 00:03:29;1082385.00;3.61;1878.95;0.00;0.00;0.62;;;;;22.80;41.10;;;;;;2245167;61;8081;-67
2021/01/04 00:06:27;1052059.00;3.51;1824.90;0.00;0.00;0.62;;;;;22.80;41.20;;;;;;2248271;61;8057;-67
2021/01/04 00:09:23;1030138.00;3.43;1785.92;0.00;0.00;0.62;;;;;22.80;41.20;;;;;;2247687;61;8303;-67
2021/01/04 00:11:59;1010513.00;3.37;1751.10;0.00;0.00;0.62;;;;;22.80;41.10;;;;;;2244838;61;8480;-67
2021/01/04 00:14:44;1096678.00;3.66;1904.48;0.00;0.00;0.62;;;;;22.80;41.20;;;;;;2248295;61;6368;-66
2021/01/04 00:17:19;1054057.00;3.51;1828.45;0.00;0.00;0.62;;;;;22.80;41.10;;;;;;2244753;61;8260;-67
2021/01/04 00:20:08;1148230.00;3.83;1996.89;0.00;0.00;0.62;;;;;22.80;41.20;;;;;;2242858;61;8297;-67
2021/01/04 00:22:55;1146402.00;3.82;1993.61;0.00;0.00;0.62;;;;;22.80;41.20;;;;;;2240962;61;8267;-67
2021/01/04 00:25:34;1183594.00;3.95;2060.59;0.00;0.00;0.62;;;;;22.70;41.10;;;;;;2247445;61;8283;-67
2021/01/04 00:28:04;1249243.00;4.16;2179.51;0.00;0.00;0.62;;;;;22.80;41.20;;;;;;2249601;61;8690;-67
2021/01/04 00:30:55;1148551.00;3.83;1997.47;0.00;0.00;0.62;;;;;22.70;41.10;;;;;;2248590;61;8315;-67
2021/01/04 00:33:36;1168814.00;3.90;2033.94;0.00;0.00;0.62;;;;;22.70;41.10;;;;;;2247684;61;8149;-66
2021/01/04 00:36:19;1216094.00;4.05;2119.35;0.00;0.00;0.62;;;;;22.70;41.10;;;;;;2246378;61;8103;-67
2021/01/04 00:39:02;1183430.00;3.94;2060.29;0.00;0.00;0.62;;;;;22.70;41.10;;;;;;2243352;61;8201;-66
2021/01/04 00:41:32;1208775.00;4.03;2106.09;0.00;0.00;0.62;;;;;22.80;41.40;;;;;;2244541;61;8029;-66
2021/01/04 00:44:05;1152996.00;3.84;2005.46;0.00;0.00;0.62;;;;;22.90;41.10;;;;;;2245885;61;8064;-67
2021/01/04 00:46:42;1237281.00;4.12;2157.77;0.00;0.00;0.62;;;;;23.00;41.30;;;;;;2250704;61;7882;-66
2021/01/04 00:49:21;1237979.00;4.13;2159.04;0.00;0.00;0.62;;;;;23.10;41.30;;;;;;2245623;61;7894;-66
2021/01/04 00:51:58;1214912.00;4.05;2117.20;0.00;0.00;0.62;;;;;23.20;41.20;;;;;;2245588;61;8127;-67
2021/01/04 00:54:52;1479735.00;4.93;2605.05;0.00;0.00;0.62;;;;;23.20;41.20;;;;;;2248887;61;8076;-65
2021/01/04 00:58:14;1269323.00;4.23;2216.07;0.00;0.00;0.62;;;;;23.30;41.00;;;;;;2245633;61;7939;-67
2021/01/04 01:00:51;1164531.00;3.88;2026.22;0.00;0.00;0.62;;;;;23.30;40.90;;;;;;2234854;61;8141;-66
2021/01/04 01:03:20;1095977.00;3.65;1903.23;0.00;0.00;0.62;;;;;23.30;40.80;;;;;;2236440;61;8120;-66
2021/01/04 01:06:00;1141624.00;3.81;1985.02;0.00;0.00;0.62;;;;;23.30;40.60;;;;;;2241263;61;8218;-66
2021/01/04 01:08:33;131392352.00;437.97;91913128.00;0.00;0.00;0.62;;;;;23.10;40.60;;;;;;2249029;61;7728;-66
2021/01/04 01:11:08;1191097.00;3.97;2074.13;0.00;0.00;0.62;;;;;23.10;40.60;;;;;;2244824;61;6132;-66
2021/01/04 01:14:05;1376997.00;4.59;2413.73;0.00;0.00;0.62;;;;;23.20;40.60;;;;;;2245770;61;8101;-66
2021/01/04 01:16:56;1142712.00;3.81;1986.98;0.00;0.00;0.62;;;;;23.20;40.50;;;;;;2244771;61;8042;-66
2021/01/04 01:19:28;1210179.00;4.03;2108.63;0.00;0.00;0.62;;;;;23.10;40.50;;;;;;2247644;61;7878;-66
2021/01/04 01:21:56;1338434.00;4.46;2342.62;0.00;0.00;0.62;;;;;23.00;40.50;;;;;;2248476;61;7707;-66
2021/01/04 01:24:24;1208838.00;4.03;2106.21;0.00;0.00;0.62;;;;;23.00;40.50;;;;;;2244410;61;7974;-66
2021/01/04 01:27:21;1232268.00;4.11;2148.67;0.00;0.00;0.62;;;;;23.10;40.40;;;;;;2244755;61;7833;-66
2021/01/04 01:30:06;1241941.00;4.14;2166.24;0.00;0.00;0.62;;;;;23.20;40.30;;;;;;2247736;61;8372;-66
2021/01/04 01:32:38;1194390.00;3.98;2080.08;0.00;0.00;0.62;;;;;23.20;40.20;;;;;;2248628;61;7847;-66
2021/01/04 01:35:09;1212376.00;4.04;2112.61;0.00;0.00;0.62;;;;;23.10;40.20;;;;;;2244875;61;8070;-66
2021/01/04 01:38:15;1255574.00;4.19;2191.03;0.00;0.00;0.62;;;;;23.10;40.30;;;;;;2248418;61;8193;-66
2021/01/04 01:41:17;1166113.00;3.89;2029.07;0.00;0.00;0.62;;;;;23.20;40.20;;;;;;2243982;61;7972;-66
2021/01/04 01:44:05;1218749.00;4.06;2124.16;0.00;0.00;0.62;;;;;23.20;40.10;;;;;;2244891;61;8181;-66
2021/01/04 01:46:48;1200838.00;4.00;2091.74;0.00;0.00;0.62;;;;;23.10;40.20;;;;;;2244723;61;8509;-66
2021/01/04 01:49:43;1445137.00;4.82;2540.30;0.00;0.00;0.62;;;;;23.10;40.10;;;;;;2244611;61;7991;-66
2021/01/04 01:52:16;1216254.00;4.05;2119.64;0.00;0.00;0.62;;;;;23.20;40.00;;;;;;2249020;61;8188;-66
2021/01/04 01:55:15;1192110.00;3.97;2075.96;0.00;0.00;0.62;;;;;23.20;40.00;;;;;;2245579;61;7683;-66
2021/01/04 01:57:59;1139700.00;3.80;1981.57;0.00;0.00;0.62;;;;;23.10;40.10;;;;;;2247985;61;8212;-66
2021/01/04 02:00:25;1195995.00;3.99;2082.98;0.00;0.00;0.62;;;;;23.00;40.10;;;;;;2247898;61;8002;-66
2021/01/04 02:05:28;1283774.00;4.28;2242.44;0.00;0.00;0.62;;;;;23.10;40.10;;;;;;2258399;61;1512;-75
2021/01/04 02:07:54;1225767.00;4.09;2136.88;0.00;0.00;0.62;;;;;23.10;40.00;;;;;;2253413;61;1803;-69
2021/01/04 02:10:36;1265212.00;4.22;2208.58;0.00;0.00;0.62;;;;;23.10;40.10;;;;;;2257024;61;1951;-75
2021/01/04 02:13:08;1373742.00;4.58;2407.71;5410.00;0.02;10.00;;;;;23.00;40.00;;;;;;2250349;61;2089;-71
2021/01/04 02:15:42;1347456.00;4.49;2359.22;0.00;0.00;0.62;;;;;23.00;40.10;;;;;;2253310;61;1593;-70
2021/01/04 02:18:20;1521678.00;5.07;2683.98;0.00;0.00;0.62;;;;;23.00;40.10;;;;;;2253677;61;1319;-71
2021/01/04 02:21:23;1324251.00;4.41;2316.56;0.00;0.00;0.62;;;;;23.00;40.10;;;;;;2253482;61;1743;-71
2021/01/04 02:24:02;1352616.00;4.51;2368.73;0.00;0.00;0.62;;;;;23.00;40.10;;;;;;2253640;61;1830;-71
2021/01/04 02:26:29;1338919.00;4.46;2343.51;0.00;0.00;0.62;;;;;23.00;40.10;;;;;;2253437;61;1805;-70
2021/01/04 02:29:09;1340967.00;4.47;2347.28;0.00;0.00;0.62;;;;;23.00;40.00;;;;;;2253724;61;2016;-70
2021/01/04 02:31:38;1351491.00;4.50;2366.65;0.00;0.00;0.62;;;;;23.00;39.90;;;;;;2253709;61;1951;-70
2021/01/04 02:34:09;1337008.00;4.46;2340.00;0.00;0.00;0.62;;;;;23.00;40.10;;;;;;2253854;61;1555;-70
2021/01/04 02:36:39;122267488.00;407.56;74047400.00;0.00;0.00;0.62;;;;;23.00;40.10;;;;;;2254513;61;1776;-69
2021/01/04 02:39:18;1333821.00;4.45;2334.14;0.00;0.00;0.62;;;;;22.90;40.10;;;;;;2254442;61;1583;-71
2021/01/04 02:41:56;1274551.00;4.25;2225.61;0.00;0.00;0.62;;;;;22.80;40.20;;;;;;2254143;61;1446;-72
2021/01/04 02:44:26;1281344.00;4.27;2238.00;0.00;0.00;0.62;;;;;22.80;40.40;;;;;;2254744;61;2368;-70
2021/01/04 02:47:45;1332109.00;4.44;2330.99;0.00;0.00;0.62;;;;;22.70;40.50;;;;;;2259094;61;1027;-69
2021/01/04 02:50:42;1312188.00;4.37;2294.43;0.00;0.00;0.62;;;;;22.60;40.70;;;;;;2251343;61;1843;-72
2021/01/04 02:53:36;1248981.00;4.16;2179.03;0.00;0.00;0.62;;;;;22.60;40.80;;;;;;2254398;61;1630;-75
2021/01/04 02:56:16;1249917.00;4.17;2180.74;0.00;0.00;0.62;;;;;22.50;40.70;;;;;;2254479;61;1564;-70
2021/01/04 02:58:57;1267159.00;4.22;2212.13;0.00;0.00;0.62;;;;;22.50;40.90;;;;;;2254495;61;1504;-70
2021/01/04 03:01:46;1287498.00;4.29;2249.24;0.00;0.00;0.62;;;;;22.40;41.00;;;;;;2253855;61;3514;-70
2021/01/04 03:04:15;1259440.00;4.20;2198.07;0.00;0.00;0.62;;;;;22.40;41.10;;;;;;2250640;61;1907;-69
2021/01/04 03:06:55;1241298.00;4.14;2165.07;0.00;0.00;0.62;;;;;22.30;41.10;;;;;;2233125;61;8115;-70
2021/01/04 03:09:30;1206876.00;4.02;2102.66;0.00;0.00;0.62;;;;;22.40;41.20;;;;;;2251566;61;7722;-73
2021/01/04 03:11:59;1234678.00;4.12;2153.05;0.00;0.00;0.62;;;;;22.40;41.20;;;;;;2247299;61;10327;-75
2021/01/04 03:14:43;1245024.00;4.15;2171.84;0.00;0.00;0.62;;;;;22.30;41.20;;;;;;2251762;61;4398;-68
2021/01/04 03:17:37;1197763.00;3.99;2086.18;0.00;0.00;0.62;;;;;22.20;41.20;;;;;;2251777;61;6193;-73
2021/01/04 03:20:10;1216802.00;4.06;2120.63;0.00;0.00;0.62;;;;;22.20;41.30;;;;;;2251666;61;7672;-68
2021/01/04 03:22:38;1201339.00;4.00;2092.64;0.00;0.00;0.62;;;;;22.20;41.20;;;;;;2250656;61;7886;-70
2021/01/04 03:25:13;1279710.00;4.27;2235.02;0.00;0.00;0.62;;;;;22.20;41.20;;;;;;2244465;61;7892;-68
2021/01/04 03:27:41;1215073.00;4.05;2117.50;0.00;0.00;0.62;;;;;22.20;41.20;;;;;;2252186;61;7868;-70
2021/01/04 03:30:10;1364347.00;4.55;2390.36;0.00;0.00;0.62;;;;;22.20;41.20;;;;;;2253058;61;9497;-69
2021/01/04 03:32:38;1222528.00;4.08;2131.00;0.00;0.00;0.62;;;;;22.30;41.20;;;;;;2251847;61;4293;-74
2021/01/04 03:35:06;1270906.00;4.24;2218.96;0.00;0.00;0.62;;;;;22.30;41.20;;;;;;2252482;61;8141;-71
2021/01/04 03:37:33;1227605.00;4.09;2140.21;0.00;0.00;0.62;;;;;22.20;41.20;;;;;;2251569;61;8020;-68
2021/01/04 03:39:59;1234174.00;4.11;2152.13;0.00;0.00;0.62;;;;;22.20;41.20;;;;;;2246474;61;7569;-70
2021/01/04 03:42:25;1259284.00;4.20;2197.78;0.00;0.00;0.62;;;;;22.20;41.30;;;;;;2249505;61;8513;-75
2021/01/04 03:44:55;1248805.00;4.16;2178.71;0.00;0.00;0.62;;;;;22.20;41.20;;;;;;2252235;61;6062;-68
2021/01/04 03:47:25;1240336.00;4.13;2163.32;0.00;0.00;0.62;;;;;22.20;41.20;;;;;;2251845;61;8468;-71
2021/01/04 03:49:52;1217631.00;4.06;2122.13;0.00;0.00;0.62;;;;;22.20;41.20;;;;;;2248791;61;8236;-68
2021/01/04 03:52:18;1165304.00;3.88;2027.61;0.00;0.00;0.62;;;;;22.20;41.20;;;;;;2248132;61;7783;-69
2021/01/04 03:54:48;1232537.00;4.11;2149.16;0.00;0.00;0.62;;;;;22.20;41.30;;;;;;2251397;61;8192;-69
2021/01/04 03:57:15;1248996.00;4.16;2179.06;0.00;0.00;0.62;;;;;22.20;41.30;;;;;;2251531;61;7924;-69
2021/01/04 03:59:42;1208123.00;4.03;2104.91;0.00;0.00;0.62;;;;;22.10;41.30;;;;;;2249619;61;7801;-69
2021/01/04 04:02:12;1211936.00;4.04;2111.82;0.00;0.00;0.62;;;;;22.10;41.30;;;;;;2252003;61;7813;-70
2021/01/04 04:04:40;1237994.00;4.13;2159.07;0.00;0.00;0.62;;;;;22.10;41.30;;;;;;2245054;61;8026;-68
2021/01/04 04:07:10;1225221.00;4.08;2135.89;0.00;0.00;0.62;;;;;22.10;41.30;;;;;;2252219;61;7889;-72
2021/01/04 04:09:37;1153381.00;3.84;2006.16;0.00;0.00;0.62;;;;;22.10;41.30;;;;;;2247777;61;8463;-69
2021/01/04 04:12:07;1221487.00;4.07;2129.12;0.00;0.00;0.62;;;;;22.10;41.30;;;;;;2249157;61;7834;-68
2021/01/04 04:14:33;1124848.00;3.75;1954.92;0.00;0.00;0.62;;;;;22.10;41.30;;;;;;2248875;61;8092;-69
2021/01/04 04:16:59;1115546.00;3.72;1938.25;0.00;0.00;0.62;;;;;22.10;41.30;;;;;;2248113;61;7977;-71
2021/01/04 04:19:26;1039454.00;3.46;1802.48;0.00;0.00;0.62;;;;;22.10;41.30;;;;;;2251794;61;7829;-69
2021/01/04 04:21:53;1020453.00;3.40;1768.73;0.00;0.00;0.62;;;;;22.10;41.30;;;;;;2248014;61;7823;-68
2021/01/04 04:24:20;1123438.00;3.74;1952.39;0.00;0.00;0.62;;;;;22.00;41.30;;;;;;2251412;61;8274;-71
2021/01/04 04:26:52;1027485.00;3.42;1781.21;0.00;0.00;0.62;;;;;22.10;41.30;;;;;;2251786;61;7791;-68
2021/01/04 04:29:18;1015703.00;3.39;1760.30;0.00;0.00;0.62;;;;;22.10;41.30;;;;;;2249956;61;7697;-68
2021/01/04 04:31:48;1026869.00;3.42;1780.12;0.00;0.00;0.62;;;;;22.10;41.40;;;;;;2247416;61;7909;-67
2021/01/04 04:34:15;955494.00;3.18;1653.80;0.00;0.00;0.62;;;;;22.00;41.40;;;;;;2249089;61;7987;-69
2021/01/04 04:36:45;948126.00;3.16;1640.81;0.00;0.00;0.62;;;;;22.00;41.30;;;;;;2251939;61;8192;-68
2021/01/04 04:39:15;984185.00;3.28;1704.48;0.00;0.00;0.62;;;;;22.10;41.30;;;;;;2249108;61;7919;-71
2021/01/04 04:41:51;1044902.00;3.48;1812.16;0.00;0.00;0.62;;;;;22.20;41.10;;;;;;2252199;61;6112;-70
2021/01/04 04:44:56;1050496.00;3.50;1822.12;0.00;0.00;0.62;;;;;22.20;40.80;;;;;;2248504;61;6153;-67
2021/01/04 04:47:50;945093.00;3.15;1635.46;0.00;0.00;0.62;;;;;22.30;40.90;;;;;;2253478;61;8271;-70
2021/01/04 04:50:23;1022692.00;3.41;1772.70;0.00;0.00;0.62;;;;;22.40;40.90;;;;;;2252226;61;8036;-68
2021/01/04 04:53:14;1025750.00;3.42;1778.13;0.00;0.00;0.62;;;;;22.40;40.80;;;;;;2251946;61;7839;-68
2021/01/04 04:55:43;1039562.00;3.47;1802.67;0.00;0.00;0.62;;;;;22.40;40.80;;;;;;2250176;61;8076;-68
2021/01/04 04:58:39;978995.00;3.26;1695.30;0.00;0.00;0.62;;;;;22.40;40.90;;;;;;2251849;61;7991;-70
2021/01/04 05:01:28;968262.00;3.23;1676.34;0.00;0.00;0.62;;;;;22.40;40.80;;;;;;2249945;61;7731;-70
2021/01/04 05:04:06;1012332.00;3.37;1754.33;0.00;0.00;0.62;;;;;22.40;40.90;;;;;;2251588;61;7853;-75
2021/01/04 05:06:58;1076066.00;3.59;1867.67;0.00;0.00;0.62;;;;;22.40;40.90;;;;;;2252225;61;7709;-68
2021/01/04 05:09:46;972603.00;3.24;1684.01;0.00;0.00;0.62;;;;;22.40;40.80;;;;;;2251077;61;8110;-71
2021/01/04 05:12:15;947797.00;3.16;1640.23;0.00;0.00;0.62;;;;;22.40;40.90;;;;;;2253849;61;8198;-68
2021/01/04 05:14:52;1013518.00;3.38;1756.43;0.00;0.00;0.62;;;;;22.40;40.80;;;;;;2251327;61;7980;-67
2021/01/04 05:17:27;128252816.00;427.51;85474600.00;0.00;0.00;0.62;;;;;22.40;40.60;;;;;;2252463;61;8429;-67
2021/01/04 05:20:05;974598.00;3.25;1687.53;0.00;0.00;0.62;;;;;22.50;40.60;;;;;;2252410;61;7887;-69
2021/01/04 05:23:05;1009301.00;3.36;1748.95;0.00;0.00;0.62;;;;;22.50;40.50;;;;;;2250982;61;8102;-69
2021/01/04 05:26:11;1056712.00;3.52;1833.18;0.00;0.00;0.62;;;;;22.50;40.40;;;;;;2251650;61;8101;-68
2021/01/04 05:28:55;1082904.00;3.61;1879.88;0.00;0.00;0.62;;;;;22.40;40.30;;;;;;2250817;61;7952;-69
2021/01/04 05:32:02;1000044.00;3.33;1732.55;0.00;0.00;0.62;;;;;22.40;40.40;;;;;;2251476;61;7823;-73
2021/01/04 05:34:39;158132288.00;527.11;160316416.00;0.00;0.00;0.62;;;;;22.40;40.50;;;;;;2249074;61;7936;-75
2021/01/04 05:37:31;1007998.00;3.36;1746.64;0.00;0.00;0.62;;;;;22.60;40.50;;;;;;2251668;61;7603;-69
2021/01/04 05:40:39;1051796.00;3.51;1824.43;0.00;0.00;0.62;;;;;22.80;40.40;;;;;;2247608;61;6525;-69
2021/01/04 05:43:24;1016927.00;3.39;1762.47;0.00;0.00;0.62;;;;;23.10;40.10;;;;;;2252444;61;4121;-72
2021/01/04 05:46:02;1036162.00;3.45;1796.63;0.00;0.00;0.62;;;;;23.40;39.70;;;;;;2251389;61;6047;-71
2021/01/04 05:48:56;1052602.00;3.51;1825.86;0.00;0.00;0.62;;;;;23.70;39.30;;;;;;2251893;61;6227;-68
2021/01/04 05:51:29;970217.00;3.23;1679.79;0.00;0.00;0.62;;;;;23.90;38.90;;;;;;2251036;61;7999;-72
2021/01/04 05:53:55;1026924.00;3.42;1780.22;0.00;0.00;0.62;;;;;24.20;38.80;;;;;;2251389;61;7934;-68
2021/01/04 05:56:24;1059237.00;3.53;1837.68;0.00;0.00;0.62;;;;;24.30;38.50;;;;;;2252244;61;7938;-71
2021/01/04 05:58:52;1094911.00;3.65;1901.33;0.00;0.00;0.62;;;;;24.30;38.30;;;;;;2247833;61;7892;-69
2021/01/04 06:01:25;1062593.00;3.54;1843.65;0.00;0.00;0.62;;;;;24.40;38.20;;;;;;2253837;61;7547;-68
2021/01/04 06:04:00;1048355.00;3.49;1818.31;0.00;0.00;0.62;;;;;24.50;38.00;;;;;;2253905;61;7565;-70
2021/01/04 06:06:53;1021301.00;3.40;1770.23;0.00;0.00;0.62;;;;;24.60;37.90;;;;;;2251422;61;8078;-71
2021/01/04 06:09:28;1008632.00;3.36;1747.77;0.00;0.00;0.62;;;;;24.70;37.80;;;;;;2250624;61;6160;-74
2021/01/04 06:12:15;1050229.00;3.50;1821.64;0.00;0.00;0.62;;;;;24.80;37.60;;;;;;2246439;61;8063;-68
2021/01/04 06:14:41;1006293.00;3.35;1743.62;0.00;0.00;0.62;;;;;24.90;37.40;;;;;;2251686;61;4200;-68
2021/01/04 06:17:27;1074373.00;3.58;1864.65;0.00;0.00;0.62;;;;;24.90;37.40;;;;;;2248231;61;8237;-69
2021/01/04 06:19:57;1027364.00;3.42;1781.00;0.00;0.00;0.62;;;;;25.00;37.30;;;;;;2249865;61;7852;-68
2021/01/04 06:22:30;1036897.00;3.46;1797.93;0.00;0.00;0.62;;;;;25.10;37.00;;;;;;2251726;61;8122;-70
2021/01/04 06:25:05;964413.00;3.21;1669.54;0.00;0.00;0.62;;;;;25.30;37.20;;;;;;2251576;61;7930;-71
2021/01/04 06:27:35;961459.00;3.20;1664.33;0.00;0.00;0.62;;;;;25.30;37.20;;;;;;2251696;61;7986;-68
2021/01/04 06:30:30;965100.00;3.22;1670.76;0.00;0.00;0.62;;;;;25.40;37.20;;;;;;2255652;61;8020;-71
2021/01/04 06:33:15;1005208.00;3.35;1741.70;0.00;0.00;0.62;;;;;25.60;37.20;;;;;;2251219;61;7587;-72
2021/01/04 06:35:42;962194.00;3.21;1665.63;0.00;0.00;0.62;;;;;25.70;37.00;;;;;;2251960;61;7583;-71
2021/01/04 06:38:20;940332.00;3.13;1627.07;0.00;0.00;0.62;;;;;25.80;36.90;;;;;;2249466;61;7878;-68
2021/01/04 06:40:48;129412968.00;431.38;87817512.00;0.00;0.00;0.62;;;;;25.80;36.80;;;;;;2251982;61;6244;-74
2021/01/04 06:43:31;924593.00;3.08;1599.36;0.00;0.00;0.62;;;;;25.90;36.70;;;;;;2246141;61;7772;-68
2021/01/04 06:46:16;906294.00;3.02;1567.18;0.00;0.00;0.62;;;;;25.90;36.70;;;;;;2251042;61;7588;-73
2021/01/04 06:48:56;980692.00;3.27;1698.30;0.00;0.00;0.62;;;;;25.90;36.60;;;;;;2249484;61;7851;-68
2021/01/04 06:51:47;939505.00;3.13;1625.61;0.00;0.00;0.62;;;;;26.00;36.60;;;;;;2252801;61;7952;-69
2021/01/04 06:54:28;917654.00;3.06;1587.15;0.00;0.00;0.62;;;;;26.00;36.60;;;;;;2249764;61;8660;-69
2021/01/04 06:57:06;972312.00;3.24;1683.49;0.00;0.00;0.62;;;;;26.00;36.50;;;;;;2253593;61;7969;-70
2021/01/04 06:59:42;937580.00;3.13;1622.22;0.00;0.00;0.62;;;;;26.10;36.50;;;;;;2250763;61;7777;-71
2021/01/04 07:02:48;1027347.00;3.42;1780.97;0.00;0.00;0.62;;;;;26.10;36.50;;;;;;2250730;61;6150;-72
2021/01/04 07:05:47;1028170.00;3.43;1782.43;0.00;0.00;0.62;;;;;26.10;36.50;;;;;;2251343;61;6019;-68
2021/01/04 07:08:22;1178525.00;3.93;2051.44;0.00;0.00;0.62;;;;;26.10;36.40;;;;;;2252681;61;5632;-69
2021/01/04 07:11:05;1009472.00;3.36;1749.26;0.00;0.00;0.62;;;;;26.20;36.50;;;;;;2250350;61;7892;-69
2021/01/04 07:13:48;872777.00;2.91;1508.36;0.00;0.00;0.62;;;;;26.20;36.10;;;;;;2250521;61;5939;-71
2021/01/04 07:16:17;990072.00;3.30;1714.90;0.00;0.00;0.62;;;;;26.30;35.90;;;;;;2250594;61;7779;-69
2021/01/04 07:19:34;1000274.00;3.33;1732.96;0.00;0.00;0.62;;;;;26.30;35.80;;;;;;2250533;61;7876;-72
2021/01/04 07:22:06;958667.00;3.20;1659.40;0.00;0.00;0.62;;;;;26.30;36.40;;;;;;2247633;61;8087;-72
2021/01/04 07:24:36;989415.00;3.30;1713.73;0.00;0.00;0.62;;;;;26.30;35.70;;;;;;2250661;61;7988;-72
2021/01/04 07:27:31;997768.00;3.33;1728.52;0.00;0.00;0.62;;;;;26.40;35.70;;;;;;2252939;61;7962;-70
2021/01/04 07:30:00;1058901.00;3.53;1837.08;0.00;0.00;0.62;;;;;26.40;35.70;;;;;;2250864;61;7602;-75
2021/01/04 07:33:09;975149.00;3.25;1688.51;0.00;0.00;0.62;;;;;26.40;35.70;;;;;;2250682;61;7650;-74
2021/01/04 07:35:52;1014641.00;3.38;1758.42;0.00;0.00;0.62;;;;;26.40;35.60;;;;;;2250800;61;7809;-73
2021/01/04 07:38:24;1033662.00;3.45;1792.18;0.00;0.00;0.62;;;;;26.40;35.50;;;;;;2252987;61;4710;-70
2021/01/04 07:41:09;1084255.00;3.61;1882.29;0.00;0.00;0.62;;;;;26.50;35.60;;;;;;2254461;61;6277;-76
2021/01/04 07:43:48;1203094.00;4.01;2095.82;0.00;0.00;0.62;;;;;26.50;35.50;;;;;;2253430;61;7491;-71
2021/01/04 07:46:32;1144286.00;3.81;1989.81;0.00;0.00;0.62;;;;;26.50;35.40;;;;;;2248664;61;3741;-69
2021/01/04 07:49:17;763357.00;2.54;1317.29;0.00;0.00;0.62;;;;;26.60;35.50;;;;;;2252054;61;4461;-70
2021/01/04 07:51:43;601074.00;2.00;1036.07;0.00;0.00;0.62;;;;;26.60;35.40;;;;;;2251109;61;5973;-72
2021/01/04 07:54:12;586162.00;1.95;1010.33;0.00;0.00;0.62;;;;;26.70;35.40;;;;;;2250450;61;2528;-71
2021/01/04 07:57:16;400273.00;1.33;690.27;0.00;0.00;0.62;;;;;26.70;35.30;;;;;;2254077;61;2580;-71
2021/01/04 08:00:05;554898.00;1.85;956.40;0.00;0.00;0.62;;;;;26.70;35.30;;;;;;2249891;61;4487;-69
2021/01/04 08:02:54;545573.00;1.82;940.33;0.00;0.00;0.62;;;;;26.80;35.10;;;;;;2250464;61;4227;-69
2021/01/04 08:05:44;544970.00;1.82;939.29;0.00;0.00;0.62;;;;;26.80;35.10;;;;;;2249991;61;6413;-69
2021/01/04 08:08:22;518173.00;1.73;893.12;0.00;0.00;0.62;;;;;26.80;35.00;;;;;;2252080;61;4233;-72
2021/01/04 08:11:08;580651.00;1.94;1000.82;0.00;0.00;0.62;;;;;26.90;35.00;;;;;;2251379;61;4356;-70
2021/01/04 08:13:55;622412.00;2.07;1072.93;0.00;0.00;0.62;;;;;26.90;35.00;;;;;;2251195;61;4211;-70
2021/01/04 08:16:34;525827.00;1.75;906.30;0.00;0.00;0.62;;;;;26.90;34.90;;;;;;2251641;61;4454;-79
2021/01/04 08:19:04;684308.00;2.28;1180.04;0.00;0.00;0.62;;;;;26.90;35.00;;;;;;2254808;61;2457;-74
2021/01/04 08:21:49;658563.00;2.20;1135.45;0.00;0.00;0.62;;;;;26.80;34.80;;;;;;2247522;61;4293;-75
2021/01/04 08:24:38;723136.00;2.41;1247.38;0.00;0.00;0.62;;;;;26.60;34.80;;;;;;2252026;61;6050;-70
2021/01/04 08:27:20;715399.00;2.38;1233.95;0.00;0.00;0.62;;;;;26.50;34.80;;;;;;2252308;61;6201;-70
2021/01/04 08:30:08;706410.00;2.35;1218.36;0.00;0.00;0.62;;;;;26.50;34.80;;;;;;2251720;61;4320;-72
2021/01/04 08:32:56;843393.00;2.81;1456.91;0.00;0.00;0.62;;;;;26.40;34.90;;;;;;2250740;61;2733;-70
2021/01/04 08:35:28;643557.00;2.15;1109.49;0.00;0.00;0.62;;;;;26.40;34.80;;;;;;2251427;61;5817;-73
2021/01/04 08:38:14;794475.00;2.65;1371.49;0.00;0.00;0.62;;;;;26.40;34.80;;;;;;2253750;61;4483;-81
2021/01/04 08:41:05;887884.00;2.96;1534.85;0.00;0.00;0.62;;;;;26.40;34.90;;;;;;2252239;61;4236;-70
2021/01/04 08:43:46;947080.00;3.16;1638.96;0.00;0.00;0.62;;;;;26.40;35.30;;;;;;2254813;61;6038;-72
2021/01/04 08:46:22;867598.00;2.89;1499.28;0.00;0.00;0.62;;;;;26.40;36.10;;;;;;2252056;61;3988;-69
2021/01/04 08:48:58;1071170.00;3.57;1858.94;0.00;0.00;0.62;;;;;26.50;36.20;;;;;;2251082;61;6172;-70
2021/01/04 08:51:31;1101890.00;3.67;1913.80;0.00;0.00;0.62;;;;;26.70;36.00;;;;;;2248049;61;6057;-68
2021/01/04 08:54:16;1221292.00;4.07;2128.76;0.00;0.00;0.62;;;;;26.80;35.90;;;;;;2251854;61;4270;-75
2021/01/04 08:57:14;1272786.00;4.24;2222.39;0.00;0.00;0.62;;;;;26.90;35.70;;;;;;2249841;61;6231;-72
2021/01/04 08:59:57;1303639.00;4.35;2278.77;0.00;0.00;0.62;;;;;27.00;35.60;;;;;;2251260;61;6119;-69
2021/01/04 09:02:36;1282001.00;4.27;2239.20;0.00;0.00;0.62;;;;;27.10;35.60;;;;;;2250966;61;8128;-76
2021/01/04 09:05:06;1263963.00;4.21;2206.30;0.00;0.00;0.62;;;;;27.10;35.70;;;;;;2251587;61;4489;-73
2021/01/04 09:07:33;1312221.00;4.37;2294.49;0.00;0.00;0.62;;;;;27.10;35.90;;;;;;2250195;61;6111;-72
2021/01/04 09:10:22;1296135.00;4.32;2265.03;0.00;0.00;0.62;;;;;27.00;35.90;;;;;;2253408;61;4415;-71
2021/01/04 09:13:08;1254435.00;4.18;2188.95;0.00;0.00;0.62;;;;;26.90;36.20;;;;;;2249680;61;4380;-69
2021/01/04 09:15:42;1231069.00;4.10;2146.50;0.00;0.00;0.62;;;;;26.90;36.10;;;;;;2251272;61;4434;-70
2021/01/04 09:18:33;1250121.00;4.17;2181.11;0.00;0.00;0.62;;;;;27.10;36.20;;;;;;2250725;61;4427;-74
2021/01/04 09:21:34;1199005.00;4.00;2088.42;0.00;0.00;0.62;;;;;27.20;36.00;;;;;;2250093;61;6122;-71
2021/01/04 09:24:09;138088432.00;460.29;106709808.00;0.00;0.00;0.62;;;;;27.30;36.10;;;;;;2250952;61;5861;-75
2021/01/04 09:26:39;1305068.00;4.35;2281.38;0.00;0.00;0.62;;;;;27.40;35.90;;;;;;2251624;61;4046;-73
2021/01/04 09:29:12;1349591.00;4.50;2363.15;0.00;0.00;0.62;;;;;27.50;35.90;;;;;;2247400;61;8006;-69
2021/01/04 09:32:04;1361304.00;4.54;2384.75;0.00;0.00;0.62;;;;;27.50;35.80;;;;;;2249928;61;7624;-68
2021/01/04 09:34:31;1360768.00;4.54;2383.76;0.00;0.00;0.62;;;;;27.50;35.80;;;;;;2251936;61;6003;-69
2021/01/04 09:37:10;1304066.00;4.35;2279.55;0.00;0.00;0.62;;;;;27.60;35.70;;;;;;2251456;61;5916;-76
2021/01/04 09:39:39;1339432.00;4.46;2344.45;0.00;0.00;0.62;;;;;27.60;35.90;;;;;;2251172;61;5972;-71
2021/01/04 09:42:12;1361444.00;4.54;2385.00;0.00;0.00;0.62;;;;;27.60;36.20;;;;;;2247660;61;6069;-69
2021/01/04 09:44:42;1310847.00;4.37;2291.97;0.00;0.00;0.62;;;;;27.70;35.70;;;;;;2250364;61;4598;-75
2021/01/04 09:47:22;1358650.00;4.53;2379.85;0.00;0.00;0.62;;;;;27.80;35.70;;;;;;2250672;61;4705;-69
2021/01/04 09:49:55;1352639.00;4.51;2368.77;0.00;0.00;0.62;;;;;27.80;35.70;;;;;;2250029;61;7645;-71
2021/01/04 09:52:29;1352754.00;4.51;2368.98;0.00;0.00;0.62;;;;;27.80;35.70;;;;;;2250632;61;4299;-69
2021/01/04 09:55:06;1378507.00;4.60;2416.52;0.00;0.00;0.62;;;;;27.80;35.60;;;;;;2250702;61;3256;-74
2021/01/04 09:57:43;1366784.00;4.56;2394.86;0.00;0.00;0.62;;;;;27.80;35.10;;;;;;2251898;61;3865;-70
2021/01/04 10:00:23;1381115.00;4.60;2421.34;0.00;0.00;0.62;;;;;27.60;34.70;;;;;;2250833;61;4369;-70
2021/01/04 10:02:59;1329688.00;4.43;2326.54;0.00;0.00;0.62;;;;;27.40;34.90;;;;;;2251642;61;4310;-69
2021/01/04 10:05:36;1384132.00;4.61;2426.93;0.00;0.00;0.62;;;;;27.20;35.00;;;;;;2251853;61;4413;-76
2021/01/04 10:08:14;1401565.00;4.67;2459.23;0.00;0.00;0.62;;;;;27.10;35.00;;;;;;2252788;61;7543;-72
2021/01/04 10:10:58;1404511.00;4.68;2464.69;0.00;0.00;0.62;;;;;26.90;35.10;;;;;;2251496;61;7641;-69
2021/01/04 10:13:26;1345324.00;4.48;2355.30;0.00;0.00;0.62;;;;;26.90;35.20;;;;;;2251268;61;5824;-72
2021/01/04 10:15:54;1333256.00;4.44;2333.10;0.00;0.00;0.62;;;;;27.00;35.90;;;;;;2249100;61;3976;-74
2021/01/04 10:18:32;1369058.00;4.56;2399.06;0.00;0.00;0.62;;;;;27.20;35.80;;;;;;2247786;61;6324;-70
2021/01/04 10:21:04;1309022.00;4.36;2288.63;0.00;0.00;0.62;;;;;27.40;35.80;;;;;;2252667;61;7856;-72
2021/01/04 10:23:55;1334647.00;4.45;2335.66;0.00;0.00;0.62;;;;;27.50;35.80;;;;;;2251130;61;2556;-70
2021/01/04 10:26:39;1310107.00;4.37;2290.61;0.00;0.00;0.62;;;;;27.70;35.70;;;;;;2254818;61;6054;-70
2021/01/04 10:29:08;1282207.00;4.27;2239.58;0.00;0.00;0.62;;;;;27.80;35.70;;;;;;2250047;61;6147;-72
2021/01/04 10:31:35;1241165.00;4.14;2164.83;0.00;0.00;0.62;;;;;27.80;35.70;;;;;;2248641;61;6120;-72